sensor_id;sensor_type;location;lat;lon;timestamp;P1;durP1;ratioP1;P2;durP2;ratioP2
21886;SDS011;11108;49.988;8.182;2022-09-03T00:01:02;1.20;;;1.20;;
21886;SDS011;11108;49.988;8.182;2022-09-03T00:03:30;0.83;;;0.83;;
21886;SDS011;11108;49.988;8.182;2022-09-03T00:06:19;1.00;;;1.00;;
21886;SDS011;11108;49.988;8.182;2022-09-03T00:08:53;1.00;;;0.80;;
21886;SDS011;11108;49.988;8.182;2022-09-03T00:11:40;0.93;;;0.90;;
21886;SDS011;11108;49.988;8.182;2022-09-03T00:14:14;0.80;;;0.80;;
21886;SDS011;11108;49.988;8.182;2022-09-03T00:19:06;1.50;;;1.03;;
21886;SDS011;11108;49.988;8.182;2022-09-03T00:21:52;0.93;;;0.93;;
21886;SDS011;11108;49.988;8.182;2022-09-03T00:24:18;1.03;;;0.90;;
21886;SDS011;11108;49.988;8.182;2022-09-03T00:26:55;0.80;;;0.80;;
21886;SDS011;11108;49.988;8.182;2022-09-03T00:29:23;0.80;;;0.80;;
21886;SDS011;11108;49.988;8.182;2022-09-03T00:31:50;1.43;;;1.00;;
21886;SDS011;11108;49.988;8.182;2022-09-03T00:34:23;1.80;;;0.93;;
21886;SDS011;11108;49.988;8.182;2022-09-03T00:36:50;1.67;;;1.10;;
21886;SDS011;11108;49.988;8.182;2022-09-03T00:39:17;1.10;;;1.07;;
21886;SDS011;11108;49.988;8.182;2022-09-03T00:41:47;1.13;;;0.70;;
21886;SDS011;11108;49.988;8.182;2022-09-03T00:44:37;0.90;;;0.90;;
21886;SDS011;11108;49.988;8.182;2022-09-03T00:54:57;1.03;;;1.00;;
21886;SDS011;11108;49.988;8.182;2022-09-03T01:00:08;0.77;;;0.77;;
21886;SDS011;11108;49.988;8.182;2022-09-03T01:05:24;1.07;;;0.97;;
21886;SDS011;11108;49.988;8.182;2022-09-03T01:10:34;1.07;;;0.80;;
21886;SDS011;11108;49.988;8.182;2022-09-03T01:13:15;0.70;;;0.70;;
21886;SDS011;11108;49.988;8.182;2022-09-03T01:41:09;1.07;;;0.90;;
21886;SDS011;11108;49.988;8.182;2022-09-03T01:46:40;0.70;;;0.70;;
21886;SDS011;11108;49.988;8.182;2022-09-03T01:49:13;0.70;;;0.70;;
21886;SDS011;11108;49.988;8.182;2022-09-03T01:51:40;0.80;;;0.80;;
21886;SDS011;11108;49.988;8.182;2022-09-03T01:59:32;0.90;;;0.90;;
21886;SDS011;11108;49.988;8.182;2022-09-03T02:02:16;0.80;;;0.80;;
21886;SDS011;11108;49.988;8.182;2022-09-03T02:10:21;0.80;;;0.80;;
21886;SDS011;11108;49.988;8.182;2022-09-03T02:12:48;0.93;;;0.93;;
21886;SDS011;11108;49.988;8.182;2022-09-03T02:15:16;0.70;;;0.70;;
21886;SDS011;11108;49.988;8.182;2022-09-03T02:17:43;1.07;;;0.80;;
21886;SDS011;11108;49.988;8.182;2022-09-03T02:20:10;0.77;;;0.77;;
21886;SDS011;11108;49.988;8.182;2022-09-03T02:22:36;0.80;;;0.80;;
21886;SDS011;11108;49.988;8.182;2022-09-03T02:25:03;1.03;;;0.80;;
21886;SDS011;11108;49.988;8.182;2022-09-03T02:27:28;0.60;;;0.60;;
21886;SDS011;11108;49.988;8.182;2022-09-03T02:29:53;0.70;;;0.70;;
21886;SDS011;11108;49.988;8.182;2022-09-03T02:32:18;0.80;;;0.80;;
21886;SDS011;11108;49.988;8.182;2022-09-03T02:34:44;1.43;;;0.73;;
21886;SDS011;11108;49.988;8.182;2022-09-03T02:37:11;1.17;;;0.80;;
21886;SDS011;11108;49.988;8.182;2022-09-03T02:39:36;1.00;;;1.00;;
21886;SDS011;11108;49.988;8.182;2022-09-03T02:42:03;1.00;;;1.00;;
21886;SDS011;11108;49.988;8.182;2022-09-03T02:44:32;0.60;;;0.60;;
21886;SDS011;11108;49.988;8.182;2022-09-03T02:47:00;0.90;;;0.90;;
21886;SDS011;11108;49.988;8.182;2022-09-03T02:49:26;0.73;;;0.73;;
21886;SDS011;11108;49.988;8.182;2022-09-03T02:51:56;1.10;;;1.10;;
21886;SDS011;11108;49.988;8.182;2022-09-03T02:54:21;0.60;;;0.60;;
21886;SDS011;11108;49.988;8.182;2022-09-03T02:56:46;0.77;;;0.77;;
21886;SDS011;11108;49.988;8.182;2022-09-03T02:59:13;0.80;;;0.80;;
21886;SDS011;11108;49.988;8.182;2022-09-03T03:01:38;0.87;;;0.87;;
21886;SDS011;11108;49.988;8.182;2022-09-03T03:04:04;0.73;;;0.73;;
21886;SDS011;11108;49.988;8.182;2022-09-03T03:06:29;0.60;;;0.60;;
21886;SDS011;11108;49.988;8.182;2022-09-03T03:08:54;0.70;;;0.70;;
21886;SDS011;11108;49.988;8.182;2022-09-03T03:11:21;0.70;;;0.70;;
21886;SDS011;11108;49.988;8.182;2022-09-03T03:13:47;0.90;;;0.90;;
21886;SDS011;11108;49.988;8.182;2022-09-03T03:16:13;0.70;;;0.70;;
21886;SDS011;11108;49.988;8.182;2022-09-03T03:18:38;0.60;;;0.60;;
21886;SDS011;11108;49.988;8.182;2022-09-03T03:21:10;0.93;;;0.90;;
21886;SDS011;11108;49.988;8.182;2022-09-03T03:23:36;1.20;;;0.87;;
21886;SDS011;11108;49.988;8.182;2022-09-03T03:26:03;0.97;;;0.87;;
21886;SDS011;11108;49.988;8.182;2022-09-03T03:28:29;0.63;;;0.63;;
21886;SDS011;11108;49.988;8.182;2022-09-03T03:31:08;0.60;;;0.60;;
21886;SDS011;11108;49.988;8.182;2022-09-03T03:33:34;0.80;;;0.80;;
21886;SDS011;11108;49.988;8.182;2022-09-03T03:38:34;0.67;;;0.67;;
21886;SDS011;11108;49.988;8.182;2022-09-03T03:41:05;0.60;;;0.60;;
21886;SDS011;11108;49.988;8.182;2022-09-03T03:43:30;0.80;;;0.80;;
21886;SDS011;11108;49.988;8.182;2022-09-03T03:45:58;0.67;;;0.67;;
21886;SDS011;11108;49.988;8.182;2022-09-03T03:48:24;0.70;;;0.70;;
21886;SDS011;11108;49.988;8.182;2022-09-03T03:50:49;0.70;;;0.70;;
21886;SDS011;11108;49.988;8.182;2022-09-03T03:53:15;0.60;;;0.60;;
21886;SDS011;11108;49.988;8.182;2022-09-03T03:55:40;0.83;;;0.83;;
21886;SDS011;11108;49.988;8.182;2022-09-03T03:58:06;1.70;;;0.80;;
21886;SDS011;11108;49.988;8.182;2022-09-03T04:00:31;1.60;;;0.80;;
21886;SDS011;11108;49.988;8.182;2022-09-03T04:03:01;0.53;;;0.53;;
21886;SDS011;11108;49.988;8.182;2022-09-03T04:05:27;0.63;;;0.63;;
21886;SDS011;11108;49.988;8.182;2022-09-03T04:07:52;0.70;;;0.70;;
21886;SDS011;11108;49.988;8.182;2022-09-03T04:10:17;0.70;;;0.70;;
21886;SDS011;11108;49.988;8.182;2022-09-03T04:12:42;0.80;;;0.80;;
21886;SDS011;11108;49.988;8.182;2022-09-03T04:15:08;0.73;;;0.73;;
21886;SDS011;11108;49.988;8.182;2022-09-03T04:17:33;0.80;;;0.80;;
21886;SDS011;11108;49.988;8.182;2022-09-03T04:19:58;1.03;;;0.87;;
21886;SDS011;11108;49.988;8.182;2022-09-03T04:22:24;0.73;;;0.70;;
21886;SDS011;11108;49.988;8.182;2022-09-03T04:24:49;0.97;;;0.90;;
21886;SDS011;11108;49.988;8.182;2022-09-03T04:27:14;0.80;;;0.80;;
21886;SDS011;11108;49.988;8.182;2022-09-03T04:29:39;0.80;;;0.80;;
21886;SDS011;11108;49.988;8.182;2022-09-03T04:32:04;0.60;;;0.60;;
21886;SDS011;11108;49.988;8.182;2022-09-03T04:34:48;0.70;;;0.70;;
21886;SDS011;11108;49.988;8.182;2022-09-03T04:37:14;0.70;;;0.70;;
21886;SDS011;11108;49.988;8.182;2022-09-03T04:39:40;0.73;;;0.73;;
21886;SDS011;11108;49.988;8.182;2022-09-03T04:42:05;0.60;;;0.60;;
21886;SDS011;11108;49.988;8.182;2022-09-03T04:44:31;0.80;;;0.80;;
21886;SDS011;11108;49.988;8.182;2022-09-03T04:46:56;0.70;;;0.70;;
21886;SDS011;11108;49.988;8.182;2022-09-03T04:49:21;0.80;;;0.80;;
21886;SDS011;11108;49.988;8.182;2022-09-03T04:51:48;0.80;;;0.80;;
21886;SDS011;11108;49.988;8.182;2022-09-03T04:54:14;0.63;;;0.63;;
21886;SDS011;11108;49.988;8.182;2022-09-03T04:56:39;0.80;;;0.80;;
21886;SDS011;11108;49.988;8.182;2022-09-03T04:59:05;0.80;;;0.80;;
21886;SDS011;11108;49.988;8.182;2022-09-03T05:01:31;0.80;;;0.80;;
21886;SDS011;11108;49.988;8.182;2022-09-03T05:03:57;0.60;;;0.60;;
21886;SDS011;11108;49.988;8.182;2022-09-03T05:06:24;0.60;;;0.60;;
21886;SDS011;11108;49.988;8.182;2022-09-03T05:08:50;0.77;;;0.77;;
21886;SDS011;11108;49.988;8.182;2022-09-03T05:11:16;0.80;;;0.80;;
21886;SDS011;11108;49.988;8.182;2022-09-03T05:13:42;0.87;;;0.70;;
21886;SDS011;11108;49.988;8.182;2022-09-03T05:16:08;0.77;;;0.77;;
21886;SDS011;11108;49.988;8.182;2022-09-03T05:18:34;0.80;;;0.80;;
21886;SDS011;11108;49.988;8.182;2022-09-03T05:21:04;0.83;;;0.83;;
21886;SDS011;11108;49.988;8.182;2022-09-03T05:23:30;0.70;;;0.70;;
21886;SDS011;11108;49.988;8.182;2022-09-03T05:25:56;0.70;;;0.70;;
21886;SDS011;11108;49.988;8.182;2022-09-03T05:28:22;0.93;;;0.93;;
21886;SDS011;11108;49.988;8.182;2022-09-03T05:30:56;0.80;;;0.80;;
21886;SDS011;11108;49.988;8.182;2022-09-03T05:33:21;0.70;;;0.70;;
21886;SDS011;11108;49.988;8.182;2022-09-03T05:35:47;0.87;;;0.87;;
21886;SDS011;11108;49.988;8.182;2022-09-03T05:38:13;0.80;;;0.80;;
21886;SDS011;11108;49.988;8.182;2022-09-03T05:40:39;0.77;;;0.77;;
21886;SDS011;11108;49.988;8.182;2022-09-03T05:43:05;0.80;;;0.80;;
21886;SDS011;11108;49.988;8.182;2022-09-03T05:45:30;0.90;;;0.90;;
21886;SDS011;11108;49.988;8.182;2022-09-03T05:47:58;0.80;;;0.80;;
21886;SDS011;11108;49.988;8.182;2022-09-03T05:50:23;1.03;;;1.00;;
21886;SDS011;11108;49.988;8.182;2022-09-03T05:52:48;0.83;;;0.83;;
21886;SDS011;11108;49.988;8.182;2022-09-03T05:55:14;1.07;;;0.87;;
21886;SDS011;11108;49.988;8.182;2022-09-03T05:57:39;0.80;;;0.80;;
21886;SDS011;11108;49.988;8.182;2022-09-03T06:00:05;0.60;;;0.60;;
21886;SDS011;11108;49.988;8.182;2022-09-03T06:02:30;1.00;;;1.00;;
21886;SDS011;11108;49.988;8.182;2022-09-03T06:04:56;0.87;;;0.87;;
21886;SDS011;11108;49.988;8.182;2022-09-03T06:07:21;0.80;;;0.80;;
21886;SDS011;11108;49.988;8.182;2022-09-03T06:09:46;0.87;;;0.80;;
21886;SDS011;11108;49.988;8.182;2022-09-03T06:12:12;0.77;;;0.77;;
21886;SDS011;11108;49.988;8.182;2022-09-03T06:14:37;0.80;;;0.80;;
21886;SDS011;11108;49.988;8.182;2022-09-03T06:17:02;0.90;;;0.90;;
21886;SDS011;11108;49.988;8.182;2022-09-03T06:19:28;0.77;;;0.77;;
21886;SDS011;11108;49.988;8.182;2022-09-03T06:21:53;0.93;;;0.93;;
21886;SDS011;11108;49.988;8.182;2022-09-03T06:24:19;0.67;;;0.67;;
21886;SDS011;11108;49.988;8.182;2022-09-03T06:26:48;0.60;;;0.60;;
21886;SDS011;11108;49.988;8.182;2022-09-03T06:29:14;0.80;;;0.80;;
21886;SDS011;11108;49.988;8.182;2022-09-03T06:31:40;0.90;;;0.90;;
21886;SDS011;11108;49.988;8.182;2022-09-03T06:34:05;0.70;;;0.70;;
21886;SDS011;11108;49.988;8.182;2022-09-03T06:36:30;0.90;;;0.90;;
21886;SDS011;11108;49.988;8.182;2022-09-03T06:38:56;1.50;;;0.80;;
21886;SDS011;11108;49.988;8.182;2022-09-03T06:41:23;1.00;;;1.00;;
21886;SDS011;11108;49.988;8.182;2022-09-03T06:43:53;1.00;;;1.00;;
21886;SDS011;11108;49.988;8.182;2022-09-03T06:46:22;0.80;;;0.80;;
21886;SDS011;11108;49.988;8.182;2022-09-03T06:48:47;1.27;;;0.80;;
21886;SDS011;11108;49.988;8.182;2022-09-03T06:51:14;1.13;;;1.10;;
21886;SDS011;11108;49.988;8.182;2022-09-03T06:53:40;1.27;;;1.00;;
21886;SDS011;11108;49.988;8.182;2022-09-03T06:56:10;1.07;;;0.90;;
21886;SDS011;11108;49.988;8.182;2022-09-03T06:58:36;1.03;;;1.00;;
21886;SDS011;11108;49.988;8.182;2022-09-03T07:01:02;1.20;;;1.10;;
21886;SDS011;11108;49.988;8.182;2022-09-03T07:03:29;1.30;;;1.30;;
21886;SDS011;11108;49.988;8.182;2022-09-03T07:05:58;1.17;;;1.00;;
21886;SDS011;11108;49.988;8.182;2022-09-03T07:08:24;1.27;;;1.20;;
21886;SDS011;11108;49.988;8.182;2022-09-03T07:10:50;1.00;;;1.00;;
21886;SDS011;11108;49.988;8.182;2022-09-03T07:13:15;1.47;;;1.37;;
21886;SDS011;11108;49.988;8.182;2022-09-03T07:15:41;1.00;;;1.00;;
21886;SDS011;11108;49.988;8.182;2022-09-03T07:18:06;1.07;;;1.07;;
21886;SDS011;11108;49.988;8.182;2022-09-03T07:20:32;1.13;;;0.90;;
21886;SDS011;11108;49.988;8.182;2022-09-03T07:22:57;1.30;;;1.20;;
21886;SDS011;11108;49.988;8.182;2022-09-03T07:25:23;1.10;;;1.10;;
21886;SDS011;11108;49.988;8.182;2022-09-03T07:27:50;2.23;;;1.07;;
21886;SDS011;11108;49.988;8.182;2022-09-03T07:30:15;1.40;;;1.30;;
21886;SDS011;11108;49.988;8.182;2022-09-03T07:32:41;1.77;;;1.40;;
21886;SDS011;11108;49.988;8.182;2022-09-03T07:35:06;1.43;;;1.30;;
21886;SDS011;11108;49.988;8.182;2022-09-03T07:37:32;1.57;;;1.20;;
21886;SDS011;11108;49.988;8.182;2022-09-03T07:39:57;3.13;;;1.20;;
21886;SDS011;11108;49.988;8.182;2022-09-03T07:42:23;1.43;;;1.10;;
21886;SDS011;11108;49.988;8.182;2022-09-03T07:44:49;1.63;;;1.40;;
21886;SDS011;11108;49.988;8.182;2022-09-03T07:47:14;1.23;;;1.23;;
21886;SDS011;11108;49.988;8.182;2022-09-03T07:49:40;1.40;;;1.30;;
21886;SDS011;11108;49.988;8.182;2022-09-03T07:52:05;1.50;;;1.40;;
21886;SDS011;11108;49.988;8.182;2022-09-03T07:54:31;2.03;;;1.27;;
21886;SDS011;11108;49.988;8.182;2022-09-03T07:56:56;2.83;;;1.20;;
21886;SDS011;11108;49.988;8.182;2022-09-03T07:59:22;1.43;;;1.10;;
21886;SDS011;11108;49.988;8.182;2022-09-03T08:01:47;1.30;;;1.30;;
21886;SDS011;11108;49.988;8.182;2022-09-03T08:04:13;1.43;;;1.33;;
21886;SDS011;11108;49.988;8.182;2022-09-03T08:06:38;1.50;;;1.40;;
21886;SDS011;11108;49.988;8.182;2022-09-03T08:09:05;1.83;;;1.73;;
21886;SDS011;11108;49.988;8.182;2022-09-03T08:11:31;1.40;;;1.30;;
21886;SDS011;11108;49.988;8.182;2022-09-03T08:14:01;1.77;;;1.67;;
21886;SDS011;11108;49.988;8.182;2022-09-03T08:16:30;4.70;;;1.80;;
21886;SDS011;11108;49.988;8.182;2022-09-03T08:18:56;1.77;;;1.60;;
21886;SDS011;11108;49.988;8.182;2022-09-03T08:21:21;1.80;;;1.67;;
21886;SDS011;11108;49.988;8.182;2022-09-03T08:23:47;2.33;;;1.73;;
21886;SDS011;11108;49.988;8.182;2022-09-03T08:26:13;1.70;;;1.53;;
21886;SDS011;11108;49.988;8.182;2022-09-03T08:28:39;1.50;;;1.40;;
21886;SDS011;11108;49.988;8.182;2022-09-03T08:31:09;2.93;;;1.43;;
21886;SDS011;11108;49.988;8.182;2022-09-03T08:33:35;3.67;;;1.80;;
21886;SDS011;11108;49.988;8.182;2022-09-03T08:36:05;2.13;;;1.43;;
21886;SDS011;11108;49.988;8.182;2022-09-03T08:38:31;1.90;;;1.80;;
21886;SDS011;11108;49.988;8.182;2022-09-03T08:41:04;4.37;;;1.50;;
21886;SDS011;11108;49.988;8.182;2022-09-03T08:43:30;1.70;;;1.60;;
21886;SDS011;11108;49.988;8.182;2022-09-03T08:45:56;2.20;;;1.50;;
21886;SDS011;11108;49.988;8.182;2022-09-03T08:48:23;1.27;;;1.23;;
21886;SDS011;11108;49.988;8.182;2022-09-03T08:50:49;1.93;;;1.53;;
21886;SDS011;11108;49.988;8.182;2022-09-03T08:58:18;3.53;;;1.53;;
21886;SDS011;11108;49.988;8.182;2022-09-03T09:01:01;1.37;;;1.27;;
21886;SDS011;11108;49.988;8.182;2022-09-03T09:06:15;2.30;;;1.87;;
21886;SDS011;11108;49.988;8.182;2022-09-03T09:11:13;4.33;;;1.60;;
21886;SDS011;11108;49.988;8.182;2022-09-03T09:16:06;1.63;;;1.50;;
21886;SDS011;11108;49.988;8.182;2022-09-03T09:18:47;2.70;;;1.40;;
21886;SDS011;11108;49.988;8.182;2022-09-03T09:21:52;2.83;;;1.70;;
21886;SDS011;11108;49.988;8.182;2022-09-03T09:24:56;1.40;;;1.30;;
21886;SDS011;11108;49.988;8.182;2022-09-03T09:26:59;1.33;;;1.23;;
21886;SDS011;11108;49.988;8.182;2022-09-03T09:29:34;2.43;;;1.40;;
21886;SDS011;11108;49.988;8.182;2022-09-03T09:31:59;1.83;;;1.30;;
21886;SDS011;11108;49.988;8.182;2022-09-03T09:34:25;1.70;;;1.17;;
21886;SDS011;11108;49.988;8.182;2022-09-03T09:36:52;3.53;;;1.57;;
21886;SDS011;11108;49.988;8.182;2022-09-03T09:39:18;1.40;;;1.30;;
21886;SDS011;11108;49.988;8.182;2022-09-03T09:41:55;2.40;;;1.50;;
21886;SDS011;11108;49.988;8.182;2022-09-03T09:44:21;1.63;;;1.50;;
21886;SDS011;11108;49.988;8.182;2022-09-03T09:46:46;1.80;;;1.70;;
21886;SDS011;11108;49.988;8.182;2022-09-03T09:51:46;2.23;;;1.40;;
21886;SDS011;11108;49.988;8.182;2022-09-03T09:54:15;3.03;;;1.60;;
21886;SDS011;11108;49.988;8.182;2022-09-03T09:56:42;1.97;;;1.60;;
21886;SDS011;11108;49.988;8.182;2022-09-03T09:59:09;1.73;;;1.30;;
21886;SDS011;11108;49.988;8.182;2022-09-03T10:01:38;2.53;;;1.57;;
21886;SDS011;11108;49.988;8.182;2022-09-03T10:04:11;3.33;;;1.57;;
21886;SDS011;11108;49.988;8.182;2022-09-03T10:06:37;1.47;;;1.30;;
21886;SDS011;11108;49.988;8.182;2022-09-03T10:09:28;2.70;;;1.90;;
21886;SDS011;11108;49.988;8.182;2022-09-03T10:14:50;2.53;;;1.80;;
21886;SDS011;11108;49.988;8.182;2022-09-03T10:20:23;2.87;;;1.80;;
21886;SDS011;11108;49.988;8.182;2022-09-03T10:25:33;2.73;;;1.80;;
21886;SDS011;11108;49.988;8.182;2022-09-03T10:28:03;3.13;;;1.40;;
21886;SDS011;11108;49.988;8.182;2022-09-03T10:30:28;4.53;;;1.73;;
21886;SDS011;11108;49.988;8.182;2022-09-03T10:33:04;2.23;;;1.70;;
21886;SDS011;11108;49.988;8.182;2022-09-03T10:35:34;1.60;;;1.50;;
21886;SDS011;11108;49.988;8.182;2022-09-03T10:43:08;2.03;;;1.73;;
21886;SDS011;11108;49.988;8.182;2022-09-03T10:51:00;2.77;;;1.30;;
21886;SDS011;11108;49.988;8.182;2022-09-03T10:56:23;2.20;;;1.23;;
21886;SDS011;11108;49.988;8.182;2022-09-03T11:06:24;1.30;;;1.20;;
21886;SDS011;11108;49.988;8.182;2022-09-03T11:08:59;2.23;;;1.37;;
21886;SDS011;11108;49.988;8.182;2022-09-03T11:11:42;2.63;;;1.70;;
21886;SDS011;11108;49.988;8.182;2022-09-03T11:14:09;2.60;;;1.60;;
21886;SDS011;11108;49.988;8.182;2022-09-03T11:16:37;2.93;;;1.50;;
21886;SDS011;11108;49.988;8.182;2022-09-03T11:19:05;4.40;;;1.77;;
21886;SDS011;11108;49.988;8.182;2022-09-03T11:21:31;3.70;;;1.43;;
21886;SDS011;11108;49.988;8.182;2022-09-03T11:26:44;2.27;;;1.47;;
21886;SDS011;11108;49.988;8.182;2022-09-03T11:29:15;1.60;;;1.50;;
21886;SDS011;11108;49.988;8.182;2022-09-03T11:34:31;2.47;;;1.57;;
21886;SDS011;11108;49.988;8.182;2022-09-03T11:37:15;1.70;;;1.60;;
21886;SDS011;11108;49.988;8.182;2022-09-03T11:39:44;1.63;;;1.47;;
21886;SDS011;11108;49.988;8.182;2022-09-03T11:42:22;1.67;;;1.57;;
21886;SDS011;11108;49.988;8.182;2022-09-03T11:44:50;2.73;;;1.63;;
21886;SDS011;11108;49.988;8.182;2022-09-03T11:49:44;2.40;;;1.63;;
21886;SDS011;11108;49.988;8.182;2022-09-03T11:52:10;3.60;;;1.30;;
21886;SDS011;11108;49.988;8.182;2022-09-03T11:54:42;1.80;;;1.70;;
21886;SDS011;11108;49.988;8.182;2022-09-03T11:57:10;2.70;;;1.47;;
21886;SDS011;11108;49.988;8.182;2022-09-03T11:59:36;2.43;;;1.57;;
21886;SDS011;11108;49.988;8.182;2022-09-03T12:02:03;2.10;;;1.60;;
21886;SDS011;11108;49.988;8.182;2022-09-03T12:04:33;2.10;;;1.87;;
21886;SDS011;11108;49.988;8.182;2022-09-03T12:07:24;2.10;;;1.60;;
21886;SDS011;11108;49.988;8.182;2022-09-03T12:17:55;3.37;;;1.80;;
21886;SDS011;11108;49.988;8.182;2022-09-03T12:20:39;4.20;;;2.00;;
21886;SDS011;11108;49.988;8.182;2022-09-03T12:23:04;2.17;;;1.97;;
21886;SDS011;11108;49.988;8.182;2022-09-03T12:25:30;2.27;;;2.00;;
21886;SDS011;11108;49.988;8.182;2022-09-03T12:27:56;4.00;;;1.80;;
21886;SDS011;11108;49.988;8.182;2022-09-03T12:30:23;1.90;;;1.80;;
21886;SDS011;11108;49.988;8.182;2022-09-03T12:32:49;2.17;;;1.90;;
21886;SDS011;11108;49.988;8.182;2022-09-03T12:35:22;2.93;;;2.20;;
21886;SDS011;11108;49.988;8.182;2022-09-03T12:37:50;2.43;;;1.67;;
21886;SDS011;11108;49.988;8.182;2022-09-03T12:40:20;2.07;;;1.93;;
21886;SDS011;11108;49.988;8.182;2022-09-03T12:42:45;2.00;;;1.83;;
21886;SDS011;11108;49.988;8.182;2022-09-03T12:45:11;2.10;;;1.80;;
21886;SDS011;11108;49.988;8.182;2022-09-03T12:47:39;2.20;;;1.97;;
21886;SDS011;11108;49.988;8.182;2022-09-03T12:50:09;1.80;;;1.70;;
21886;SDS011;11108;49.988;8.182;2022-09-03T12:55:07;3.17;;;1.70;;
21886;SDS011;11108;49.988;8.182;2022-09-03T12:57:45;2.13;;;1.90;;
21886;SDS011;11108;49.988;8.182;2022-09-03T13:00:13;1.87;;;1.77;;
21886;SDS011;11108;49.988;8.182;2022-09-03T13:02:41;1.97;;;1.83;;
21886;SDS011;11108;49.988;8.182;2022-09-03T13:05:13;2.00;;;1.90;;
21886;SDS011;11108;49.988;8.182;2022-09-03T13:07:42;1.83;;;1.73;;
21886;SDS011;11108;49.988;8.182;2022-09-03T13:10:15;2.23;;;2.13;;
21886;SDS011;11108;49.988;8.182;2022-09-03T13:12:45;1.70;;;1.60;;
21886;SDS011;11108;49.988;8.182;2022-09-03T13:15:22;1.90;;;1.80;;
21886;SDS011;11108;49.988;8.182;2022-09-03T13:23:09;2.20;;;2.03;;
21886;SDS011;11108;49.988;8.182;2022-09-03T13:25:52;1.90;;;1.70;;
21886;SDS011;11108;49.988;8.182;2022-09-03T13:28:36;1.97;;;1.83;;
21886;SDS011;11108;49.988;8.182;2022-09-03T13:34:05;1.50;;;1.50;;
21886;SDS011;11108;49.988;8.182;2022-09-03T13:39:08;1.77;;;1.67;;
21886;SDS011;11108;49.988;8.182;2022-09-03T13:41:42;1.77;;;1.70;;
21886;SDS011;11108;49.988;8.182;2022-09-03T13:49:27;1.87;;;1.50;;
21886;SDS011;11108;49.988;8.182;2022-09-03T13:52:16;2.33;;;2.20;;
21886;SDS011;11108;49.988;8.182;2022-09-03T13:54:47;1.67;;;1.57;;
21886;SDS011;11108;49.988;8.182;2022-09-03T13:59:49;1.70;;;1.40;;
21886;SDS011;11108;49.988;8.182;2022-09-03T14:04:54;1.57;;;1.47;;
21886;SDS011;11108;49.988;8.182;2022-09-03T14:07:43;2.00;;;1.80;;
21886;SDS011;11108;49.988;8.182;2022-09-03T14:12:43;1.40;;;1.30;;
21886;SDS011;11108;49.988;8.182;2022-09-03T14:17:46;1.97;;;1.87;;
21886;SDS011;11108;49.988;8.182;2022-09-03T14:25:19;1.73;;;1.63;;
21886;SDS011;11108;49.988;8.182;2022-09-03T14:27:44;1.93;;;1.83;;
21886;SDS011;11108;49.988;8.182;2022-09-03T14:35:30;1.67;;;1.57;;
21886;SDS011;11108;49.988;8.182;2022-09-03T14:45:47;1.53;;;1.53;;
21886;SDS011;11108;49.988;8.182;2022-09-03T14:56:04;2.13;;;2.03;;
21886;SDS011;11108;49.988;8.182;2022-09-03T15:01:10;2.47;;;1.70;;
21886;SDS011;11108;49.988;8.182;2022-09-03T15:09:23;2.30;;;2.10;;
21886;SDS011;11108;49.988;8.182;2022-09-03T15:11:29;1.83;;;1.73;;
21886;SDS011;11108;49.988;8.182;2022-09-03T15:14:08;2.93;;;2.20;;
21886;SDS011;11108;49.988;8.182;2022-09-03T15:16:50;2.10;;;2.00;;
21886;SDS011;11108;49.988;8.182;2022-09-03T15:22:05;2.13;;;2.03;;
21886;SDS011;11108;49.988;8.182;2022-09-03T15:30:18;2.17;;;2.07;;
21886;SDS011;11108;49.988;8.182;2022-09-03T15:37:59;2.60;;;2.40;;
21886;SDS011;11108;49.988;8.182;2022-09-03T15:42:52;2.17;;;2.07;;
21886;SDS011;11108;49.988;8.182;2022-09-03T15:47:54;3.13;;;2.03;;
21886;SDS011;11108;49.988;8.182;2022-09-03T15:50:33;2.33;;;2.20;;
21886;SDS011;11108;49.988;8.182;2022-09-03T15:53:05;2.00;;;1.97;;
21886;SDS011;11108;49.988;8.182;2022-09-03T15:55:38;1.93;;;1.83;;
21886;SDS011;11108;49.988;8.182;2022-09-03T16:00:49;4.30;;;2.20;;
21886;SDS011;11108;49.988;8.182;2022-09-03T16:03:16;1.93;;;1.73;;
21886;SDS011;11108;49.988;8.182;2022-09-03T16:06:05;2.53;;;2.33;;
21886;SDS011;11108;49.988;8.182;2022-09-03T16:16:24;2.30;;;1.90;;
21886;SDS011;11108;49.988;8.182;2022-09-03T16:21:23;1.90;;;1.80;;
21886;SDS011;11108;49.988;8.182;2022-09-03T16:23:53;1.97;;;1.87;;
21886;SDS011;11108;49.988;8.182;2022-09-03T16:26:20;1.80;;;1.70;;
21886;SDS011;11108;49.988;8.182;2022-09-03T16:28:54;4.73;;;1.77;;
21886;SDS011;11108;49.988;8.182;2022-09-03T16:37:00;1.60;;;1.50;;
21886;SDS011;11108;49.988;8.182;2022-09-03T16:41:56;1.60;;;1.50;;
21886;SDS011;11108;49.988;8.182;2022-09-03T16:47:49;1.50;;;1.40;;
21886;SDS011;11108;49.988;8.182;2022-09-03T16:52:24;2.90;;;1.57;;
21886;SDS011;11108;49.988;8.182;2022-09-03T16:54:59;3.10;;;1.70;;
21886;SDS011;11108;49.988;8.182;2022-09-03T16:57:31;1.80;;;1.70;;
21886;SDS011;11108;49.988;8.182;2022-09-03T17:05:31;2.13;;;1.70;;
21886;SDS011;11108;49.988;8.182;2022-09-03T17:08:17;2.43;;;1.60;;
21886;SDS011;11108;49.988;8.182;2022-09-03T17:10:45;1.20;;;1.20;;
21886;SDS011;11108;49.988;8.182;2022-09-03T17:18:20;1.50;;;1.30;;
21886;SDS011;11108;49.988;8.182;2022-09-03T17:36:27;1.80;;;1.40;;
21886;SDS011;11108;49.988;8.182;2022-09-03T17:49:20;1.20;;;1.20;;
21886;SDS011;11108;49.988;8.182;2022-09-03T17:51:49;1.57;;;1.40;;
21886;SDS011;11108;49.988;8.182;2022-09-03T17:56:51;2.40;;;1.60;;
21886;SDS011;11108;49.988;8.182;2022-09-03T18:01:49;1.20;;;1.20;;
21886;SDS011;11108;49.988;8.182;2022-09-03T18:12:13;2.60;;;1.30;;
21886;SDS011;11108;49.988;8.182;2022-09-03T18:19:44;2.07;;;1.40;;
21886;SDS011;11108;49.988;8.182;2022-09-03T18:22:49;1.83;;;1.47;;
21886;SDS011;11108;49.988;8.182;2022-09-03T18:25:34;1.10;;;1.10;;
21886;SDS011;11108;49.988;8.182;2022-09-03T18:28:18;1.43;;;1.20;;
21886;SDS011;11108;49.988;8.182;2022-09-03T18:31:08;1.33;;;1.33;;
21886;SDS011;11108;49.988;8.182;2022-09-03T18:33:52;1.30;;;1.20;;
21886;SDS011;11108;49.988;8.182;2022-09-03T18:36:36;1.50;;;1.37;;
21886;SDS011;11108;49.988;8.182;2022-09-03T18:39:27;2.50;;;1.30;;
21886;SDS011;11108;49.988;8.182;2022-09-03T18:42:26;1.60;;;1.50;;
21886;SDS011;11108;49.988;8.182;2022-09-03T18:48:18;2.27;;;1.63;;
21886;SDS011;11108;49.988;8.182;2022-09-03T18:51:05;1.33;;;1.23;;
21886;SDS011;11108;49.988;8.182;2022-09-03T18:54:17;1.73;;;1.33;;
21886;SDS011;11108;49.988;8.182;2022-09-03T18:56:55;1.40;;;1.30;;
21886;SDS011;11108;49.988;8.182;2022-09-03T19:05:37;2.50;;;1.20;;
21886;SDS011;11108;49.988;8.182;2022-09-03T19:11:35;1.20;;;1.20;;
21886;SDS011;11108;49.988;8.182;2022-09-03T19:14:31;1.77;;;1.40;;
21886;SDS011;11108;49.988;8.182;2022-09-03T19:17:19;1.60;;;1.40;;
21886;SDS011;11108;49.988;8.182;2022-09-03T19:20:13;1.33;;;1.10;;
21886;SDS011;11108;49.988;8.182;2022-09-03T19:22:59;1.37;;;1.13;;
21886;SDS011;11108;49.988;8.182;2022-09-03T19:25:44;1.50;;;1.40;;
21886;SDS011;11108;49.988;8.182;2022-09-03T19:28:28;1.73;;;1.53;;
21886;SDS011;11108;49.988;8.182;2022-09-03T19:34:08;1.13;;;1.13;;
21886;SDS011;11108;49.988;8.182;2022-09-03T19:48:17;1.37;;;1.10;;
21886;SDS011;11108;49.988;8.182;2022-09-03T19:51:07;1.20;;;1.20;;
21886;SDS011;11108;49.988;8.182;2022-09-03T19:53:52;1.63;;;1.30;;
21886;SDS011;11108;49.988;8.182;2022-09-03T19:56:36;1.03;;;1.03;;
21886;SDS011;11108;49.988;8.182;2022-09-03T19:59:22;1.07;;;1.07;;
21886;SDS011;11108;49.988;8.182;2022-09-03T20:02:07;3.13;;;1.10;;
21886;SDS011;11108;49.988;8.182;2022-09-03T20:07:39;1.10;;;1.10;;
21886;SDS011;11108;49.988;8.182;2022-09-03T20:10:23;1.10;;;1.03;;
21886;SDS011;11108;49.988;8.182;2022-09-03T20:15:20;1.20;;;1.20;;
21886;SDS011;11108;49.988;8.182;2022-09-03T20:18:00;1.53;;;1.03;;
21886;SDS011;11108;49.988;8.182;2022-09-03T20:22:59;1.02;;;1.02;;
21886;SDS011;11108;49.988;8.182;2022-09-03T20:36:05;1.47;;;1.37;;